Olive Hill, Kentucky
Current Conditions -  °F | °C
As of 6:50 AM on Thursday 27 Nov 2014 (Local Time) from KSYM Reporting Station
Haze Haze  
Wind Chill: 22°   Ceiling: 6000
Heat Index: 30°   Visibility: 6mi
Dew Point: 27°   Wind: 9mph
Humidity: 86%   Direction: 300°WNW
Pressure: 30.15"   Gusts: NA
Location:  38.3°N, 83.17°W
Report Text: KSYM 271150Z AUTO 30008KT 6SM BR SCT025 OVC060 M01/M03 A3015 RMK AO2
Loading
Personal Weather Stations






























Interactive Weather Map New forecast layout! Learn more

10-Day Weather Forecast

Advertisements
Track Severe Weather on mobile